Time;durP1;ratioP1;P1;durP2;ratioP2;P2;SDS_P1;SDS_P2;PMS_P1;PMS_P2;Temp;Humidity;BMP_temperature;BMP_pressure;BME280_temperature;BME280_humidity;BME280_pressure;Samples;Min_cycle;Max_cycle;Signal;HPM_P1;HPM_P2
2024/04/05 00:01:22;;;;;;;3.28;1.00;;;;;;;10.85;100.00;97228.94;5028647;28;20118;-69
2024/04/05 00:03:48;;;;;;;4.70;1.38;;;;;;;10.78;100.00;97229.13;5044107;28;20034;-68
2024/04/05 00:06:13;;;;;;;4.38;1.70;;;;;;;10.72;100.00;97219.31;5021506;28;20061;-67
2024/04/05 00:08:39;;;;;;;3.63;1.50;;;;;;;10.87;100.00;97229.47;5022983;28;20041;-68
2024/04/05 00:11:05;;;;;;;3.38;1.40;;;;;;;10.93;100.00;97228.47;5023157;28;20116;-66
2024/04/05 00:13:30;;;;;;;2.22;1.30;;;;;;;10.98;100.00;97238.50;5024957;28;20045;-68
2024/04/05 00:15:56;;;;;;;3.47;1.40;;;;;;;11.00;100.00;97230.94;5023381;28;20091;-67
2024/04/05 00:18:21;;;;;;;4.65;1.35;;;;;;;10.92;100.00;97243.06;5024455;28;20068;-66
2024/04/05 00:20:48;;;;;;;3.92;1.00;;;;;;;10.80;100.00;97237.81;5021278;28;20033;-67
2024/04/05 00:23:14;;;;;;;4.45;1.52;;;;;;;10.89;100.00;97234.63;5021403;28;20420;-66
2024/04/05 00:25:43;;;;;;;3.17;1.40;;;;;;;10.90;100.00;97228.13;5019886;28;20513;-66
2024/04/05 00:28:08;;;;;;;4.70;1.30;;;;;;;10.88;100.00;97219.47;5017957;28;20060;-69
2024/04/05 00:30:35;;;;;;;3.65;1.60;;;;;;;10.96;100.00;97220.88;5022127;28;20435;-67
2024/04/05 00:33:01;;;;;;;3.67;1.08;;;;;;;10.92;100.00;97223.28;5027896;28;20437;-69
2024/04/05 00:35:27;;;;;;;4.35;1.08;;;;;;;10.89;100.00;97221.09;5021862;28;20037;-69
2024/04/05 00:37:53;;;;;;;4.63;1.27;;;;;;;10.74;100.00;97211.78;5022790;28;20111;-69
2024/04/05 00:40:18;;;;;;;6.60;1.35;;;;;;;10.70;100.00;97213.34;5023211;28;20043;-67
2024/04/05 00:42:44;;;;;;;2.65;1.15;;;;;;;10.76;100.00;97208.81;5021363;28;20072;-67
2024/04/05 00:45:09;;;;;;;3.25;1.20;;;;;;;10.71;100.00;97216.88;5024268;28;20044;-69
2024/04/05 00:47:35;;;;;;;4.90;1.20;;;;;;;10.60;100.00;97213.25;5024226;28;20058;-68
2024/04/05 00:50:06;;;;;;;4.88;1.42;;;;;;;10.59;100.00;97206.19;5021964;28;20107;-67
2024/04/05 00:52:32;;;;;;;3.38;1.42;;;;;;;10.56;100.00;97204.00;5018511;28;20045;-66
2024/04/05 00:54:59;;;;;;;5.55;1.63;;;;;;;10.48;100.00;97203.41;5017307;28;20049;-67
2024/04/05 00:57:25;;;;;;;4.50;1.70;;;;;;;10.60;100.00;97202.41;5001296;28;20504;-66
2024/04/05 00:59:50;;;;;;;4.78;1.48;;;;;;;10.70;100.00;97199.81;5024032;28;20501;-67
2024/04/05 01:02:16;;;;;;;3.80;1.25;;;;;;;10.61;100.00;97195.94;5023406;28;20059;-69
2024/04/05 01:04:43;;;;;;;2.72;0.95;;;;;;;10.63;100.00;97196.50;5017251;28;20038;-68
2024/04/05 01:07:10;;;;;;;3.53;1.10;;;;;;;10.61;100.00;97190.53;5016873;28;20513;-68
2024/04/05 01:09:36;;;;;;;4.70;1.40;;;;;;;10.38;100.00;97197.84;5033812;28;20042;-66
2024/04/05 01:12:03;;;;;;;6.68;1.77;;;;;;;10.32;100.00;97194.25;5032768;28;20049;-67
2024/04/05 01:14:29;;;;;;;4.63;1.42;;;;;;;10.21;100.00;97200.66;5021623;28;20532;-66
2024/04/05 01:16:54;;;;;;;5.15;1.52;;;;;;;10.07;100.00;97205.63;5015065;28;20045;-68
2024/04/05 01:19:20;;;;;;;5.45;1.35;;;;;;;9.97;100.00;97207.16;5021486;28;20034;-67
2024/04/05 01:21:51;;;;;;;4.32;1.35;;;;;;;9.91;100.00;97208.13;5010767;28;20460;-68
2024/04/05 01:24:17;;;;;;;3.65;1.48;;;;;;;9.86;100.00;97206.22;5022848;28;20042;-67
2024/04/05 01:26:43;;;;;;;5.32;1.58;;;;;;;9.94;100.00;97206.81;5019890;28;20182;-66
2024/04/05 01:29:09;;;;;;;4.28;1.17;;;;;;;10.01;100.00;97197.47;5020983;28;20131;-67
2024/04/05 01:31:35;;;;;;;7.68;1.88;;;;;;;10.14;100.00;97198.16;5012711;28;20037;-69
2024/04/05 01:34:00;;;;;;;5.30;1.52;;;;;;;10.06;100.00;97193.19;5013657;28;20513;-68
2024/04/05 01:36:26;;;;;;;4.32;1.20;;;;;;;10.08;100.00;97194.56;5014715;28;20038;-67
2024/04/05 01:38:51;;;;;;;4.80;1.17;;;;;;;10.03;100.00;97199.91;5017435;28;20510;-69
2024/04/05 01:41:21;;;;;;;5.72;1.60;;;;;;;9.95;100.00;97198.44;5022714;28;20047;-66
2024/04/05 01:43:47;;;;;;;6.68;1.52;;;;;;;9.97;100.00;97200.91;5027203;28;20029;-66
2024/04/05 01:46:12;;;;;;;5.47;1.27;;;;;;;9.89;100.00;97194.06;5020369;28;20410;-66
2024/04/05 01:48:38;;;;;;;6.93;2.08;;;;;;;9.96;100.00;97197.41;5025426;28;20055;-67
2024/04/05 01:51:04;;;;;;;5.90;2.35;;;;;;;10.07;100.00;97184.00;5019872;28;20401;-68
2024/04/05 01:53:30;;;;;;;5.35;1.88;;;;;;;10.13;100.00;97188.38;5019674;28;20390;-68
2024/04/05 01:56:02;;;;;;;4.68;1.98;;;;;;;10.21;100.00;97187.91;5026298;28;20068;-69
2024/04/05 01:58:29;;;;;;;7.20;1.77;;;;;;;10.32;100.00;97185.34;4997521;28;20055;-67
2024/04/05 02:01:01;;;;;;;4.85;1.73;;;;;;;10.34;100.00;97178.59;5019043;28;20037;-66
2024/04/05 02:03:27;;;;;;;3.60;1.65;;;;;;;10.35;100.00;97182.09;5020521;28;20378;-67
2024/04/05 02:05:53;;;;;;;4.45;1.90;;;;;;;10.43;100.00;97181.66;5023520;28;20029;-67
2024/04/05 02:08:19;;;;;;;5.97;2.03;;;;;;;10.48;100.00;97180.91;5022674;28;20467;-67
2024/04/05 02:10:45;;;;;;;6.55;1.90;;;;;;;10.48;100.00;97178.22;5006704;28;20115;-68
2024/04/05 02:13:11;;;;;;;6.43;2.08;;;;;;;10.48;100.00;97179.03;5025837;28;20062;-67
2024/04/05 02:15:36;;;;;;;5.88;1.90;;;;;;;10.49;100.00;97177.13;5021398;28;20038;-67
2024/04/05 02:18:03;;;;;;;4.93;1.50;;;;;;;10.59;100.00;97184.53;5023975;28;20053;-69
2024/04/05 02:20:29;;;;;;;6.18;1.70;;;;;;;10.74;100.00;97176.56;5018064;28;20080;-68
2024/04/05 02:22:55;;;;;;;4.07;1.70;;;;;;;10.83;100.00;97179.59;5023303;28;20038;-67
2024/04/05 02:25:21;;;;;;;3.00;1.33;;;;;;;10.76;100.00;97182.53;5018904;28;20044;-67
2024/04/05 02:27:46;;;;;;;3.38;1.17;;;;;;;10.72;100.00;97178.69;5018280;28;20045;-68
2024/04/05 02:30:12;;;;;;;3.53;1.40;;;;;;;10.65;100.00;97180.81;5037876;28;20714;-69
2024/04/05 02:32:38;;;;;;;2.90;1.33;;;;;;;10.59;100.00;97181.84;5019715;28;20267;-67
2024/04/05 02:35:05;;;;;;;8.02;1.50;;;;;;;10.65;100.00;97192.44;5020809;28;20096;-67
2024/04/05 02:37:30;;;;;;;3.90;1.50;;;;;;;10.72;100.00;97183.31;5026284;28;20037;-69
2024/04/05 02:39:56;;;;;;;3.78;1.48;;;;;;;10.64;100.00;97184.59;5018874;28;20187;-66
2024/04/05 02:42:21;;;;;;;5.95;1.35;;;;;;;10.52;100.00;97180.16;5025017;28;20088;-68
2024/04/05 02:44:47;;;;;;;3.70;1.30;;;;;;;10.57;100.00;97184.00;5024372;28;20128;-66
2024/04/05 02:47:13;;;;;;;3.65;1.30;;;;;;;10.52;100.00;97176.63;5019987;28;20516;-69
2024/04/05 02:49:39;;;;;;;3.38;1.50;;;;;;;10.38;100.00;97187.84;5020043;28;20045;-69
2024/04/05 02:52:05;;;;;;;4.97;1.40;;;;;;;10.46;100.00;97189.28;5022261;28;20056;-67
2024/04/05 02:54:32;;;;;;;5.57;1.47;;;;;;;10.41;100.00;97186.50;5023122;28;20037;-67
2024/04/05 02:56:57;;;;;;;2.95;1.23;;;;;;;10.44;100.00;97190.59;5021907;28;20052;-67
2024/04/05 02:59:23;;;;;;;3.13;0.98;;;;;;;10.51;100.00;97192.03;5006559;28;20124;-68
2024/04/05 03:01:49;;;;;;;5.57;1.45;;;;;;;10.44;100.00;97190.59;5022635;28;20045;-67
2024/04/05 03:04:14;;;;;;;4.22;1.20;;;;;;;10.45;100.00;97195.78;5023997;28;20041;-66
2024/04/05 03:06:40;;;;;;;3.45;1.48;;;;;;;10.49;100.00;97198.78;5020377;28;20033;-67
2024/04/05 03:09:05;;;;;;;4.60;1.73;;;;;;;10.38;100.00;97198.66;5013232;28;20080;-66
2024/04/05 03:11:31;;;;;;;4.20;1.83;;;;;;;10.23;100.00;97206.63;5021061;28;20548;-68
2024/04/05 03:13:56;;;;;;;5.30;1.50;;;;;;;10.29;100.00;97202.91;5022547;28;20037;-66
2024/04/05 03:16:22;;;;;;;3.70;1.58;;;;;;;10.21;100.00;97201.44;5015579;28;20076;-68
2024/04/05 03:18:48;;;;;;;5.57;1.90;;;;;;;10.14;100.00;97206.25;5013519;28;20037;-66
2024/04/05 03:21:13;;;;;;;4.15;1.60;;;;;;;10.04;100.00;97195.31;5022265;28;20061;-68
2024/04/05 03:23:39;;;;;;;4.80;1.60;;;;;;;9.96;100.00;97191.16;5022338;28;20087;-66
2024/04/05 03:26:04;;;;;;;4.35;1.35;;;;;;;9.92;100.00;97193.56;5019562;28;20179;-67
2024/04/05 03:28:30;;;;;;;4.70;1.70;;;;;;;9.86;100.00;97194.56;5012335;28;20443;-66
2024/04/05 03:30:55;;;;;;;4.13;1.42;;;;;;;9.61;100.00;97191.28;5021160;28;20049;-68
2024/04/05 03:33:21;;;;;;;6.13;1.52;;;;;;;9.60;100.00;97194.25;5017030;28;20043;-68
2024/04/05 03:35:46;;;;;;;4.22;1.58;;;;;;;9.52;100.00;97189.25;5023579;28;20036;-67
2024/04/05 03:38:13;;;;;;;5.15;1.80;;;;;;;9.49;100.00;97186.00;5020995;28;20612;-66
2024/04/05 03:40:39;;;;;;;6.40;1.85;;;;;;;9.44;100.00;97177.81;5026794;28;20044;-67
2024/04/05 03:43:06;;;;;;;6.55;2.40;;;;;;;9.37;100.00;97183.38;5023146;28;20054;-66
2024/04/05 03:45:32;;;;;;;5.68;2.22;;;;;;;9.29;100.00;97177.59;5019320;28;20667;-68
2024/04/05 03:47:57;;;;;;;4.22;1.90;;;;;;;9.23;100.00;97182.94;5025183;28;20050;-66
2024/04/05 03:50:23;;;;;;;5.63;1.60;;;;;;;9.15;100.00;97183.34;5018809;28;20045;-66
2024/04/05 03:52:49;;;;;;;6.05;1.70;;;;;;;9.09;100.00;97187.03;5016265;28;20043;-66
2024/04/05 03:55:14;;;;;;;4.80;1.92;;;;;;;9.04;100.00;97187.78;5020180;28;20116;-66
2024/04/05 03:57:42;;;;;;;5.28;2.00;;;;;;;9.09;100.00;97203.25;5025172;28;20469;-68
2024/04/05 04:00:09;;;;;;;4.65;1.70;;;;;;;8.94;100.00;97212.75;5006049;28;20067;-68
2024/04/05 04:02:37;;;;;;;5.80;1.80;;;;;;;8.87;100.00;97212.09;5020255;28;20412;-67
2024/04/05 04:05:03;;;;;;;6.90;1.80;;;;;;;8.92;100.00;97212.16;5028376;28;20045;-68
2024/04/05 04:07:29;;;;;;;5.63;1.75;;;;;;;8.89;100.00;97212.66;5017664;28;20037;-67
2024/04/05 04:09:54;;;;;;;5.03;1.80;;;;;;;8.87;100.00;97213.94;5021888;28;20125;-68
2024/04/05 04:12:20;;;;;;;6.53;2.10;;;;;;;8.91;100.00;97225.91;5021848;28;20040;-69
2024/04/05 04:14:45;;;;;;;4.40;2.13;;;;;;;9.03;100.00;97223.13;5014789;28;20659;-66
2024/04/05 04:17:11;;;;;;;3.92;2.25;;;;;;;9.07;100.00;97214.28;5025844;28;20051;-65
2024/04/05 04:19:37;;;;;;;3.63;1.77;;;;;;;9.02;100.00;97208.81;5022396;28;20069;-67
2024/04/05 04:22:02;;;;;;;6.97;2.20;;;;;;;8.99;100.00;97195.78;5021310;28;20057;-68
2024/04/05 04:24:29;;;;;;;8.68;2.40;;;;;;;9.02;100.00;97208.81;5019288;28;20037;-68
2024/04/05 04:26:55;;;;;;;5.55;1.98;;;;;;;9.10;100.00;97202.16;5027710;28;20152;-67
2024/04/05 04:29:22;;;;;;;5.95;1.98;;;;;;;9.16;100.00;97206.59;5024771;28;20042;-67
2024/04/05 04:31:47;;;;;;;6.35;2.55;;;;;;;9.16;100.00;97195.78;5024872;28;20067;-66
2024/04/05 04:34:13;;;;;;;5.78;1.98;;;;;;;9.19;100.00;97198.00;5020372;28;20625;-67
2024/04/05 04:36:38;;;;;;;7.72;1.95;;;;;;;9.15;100.00;97191.47;5020867;28;20116;-68
2024/04/05 04:39:08;;;;;;;6.68;2.40;;;;;;;9.20;100.00;97199.63;5026244;28;20052;-67
2024/04/05 04:41:35;;;;;;;5.65;2.53;;;;;;;9.11;100.00;97198.44;5024653;28;20096;-66
2024/04/05 04:44:00;;;;;;;6.32;2.13;;;;;;;9.05;100.00;97205.63;5016046;28;20037;-67
2024/04/05 04:46:26;;;;;;;5.72;2.42;;;;;;;9.02;100.00;97213.38;5020663;28;20045;-67
2024/04/05 04:48:51;;;;;;;4.82;2.17;;;;;;;9.00;100.00;97221.75;5024526;28;20053;-66
2024/04/05 04:51:17;;;;;;;8.30;2.63;;;;;;;8.89;100.00;97218.06;5018380;28;20564;-67
2024/04/05 04:53:43;;;;;;;4.70;2.20;;;;;;;8.82;100.00;97214.69;5020396;28;20121;-67
2024/04/05 04:56:10;;;;;;;5.35;2.05;;;;;;;8.73;100.00;97221.56;5020461;28;20117;-68
2024/04/05 04:58:36;;;;;;;4.57;1.80;;;;;;;8.55;100.00;97218.84;5016943;28;20103;-65
2024/04/05 05:01:02;;;;;;;3.38;1.98;;;;;;;8.55;100.00;97228.81;5017982;28;20057;-66
2024/04/05 05:03:27;;;;;;;4.28;2.05;;;;;;;8.44;100.00;97225.88;5018247;28;20103;-68
2024/04/05 05:05:53;;;;;;;6.57;2.33;;;;;;;8.38;100.00;97228.75;5020716;28;20513;-69
2024/04/05 05:08:20;;;;;;;3.90;1.92;;;;;;;8.33;100.00;97234.84;5016788;28;20048;-66
2024/04/05 05:10:46;;;;;;;4.53;2.05;;;;;;;8.31;100.00;97251.28;5006141;28;20056;-67
2024/04/05 05:13:12;;;;;;;4.85;1.83;;;;;;;8.27;100.00;97252.84;5024990;28;20041;-67
2024/04/05 05:15:42;;;;;;;5.20;2.00;;;;;;;8.24;100.00;97247.91;5024168;28;20042;-68
2024/04/05 05:18:08;;;;;;;4.90;1.90;;;;;;;8.20;100.00;97252.16;5016790;28;20038;-67
2024/04/05 05:20:35;;;;;;;6.18;1.92;;;;;;;8.12;100.00;97241.72;5022022;28;20296;-67
2024/04/05 05:23:01;;;;;;;5.60;2.08;;;;;;;8.10;100.00;97239.28;5025993;28;20155;-66
2024/04/05 05:25:26;;;;;;;6.90;1.50;;;;;;;8.08;100.00;97241.41;5006656;28;20854;-67
2024/04/05 05:27:52;;;;;;;4.95;2.40;;;;;;;8.07;100.00;97237.03;5019890;28;20509;-66
2024/04/05 05:30:18;;;;;;;8.05;2.30;;;;;;;8.11;100.00;97249.00;5019817;28;20091;-67
2024/04/05 05:32:44;;;;;;;5.40;2.13;;;;;;;8.06;100.00;97238.09;5019244;28;20054;-66
2024/04/05 05:35:10;;;;;;;7.72;1.90;;;;;;;8.00;100.00;97237.19;5021671;28;20041;-67
2024/04/05 05:37:35;;;;;;;8.07;1.90;;;;;;;7.96;100.00;97229.81;5018739;28;20056;-68
2024/04/05 05:40:01;;;;;;;8.27;2.40;;;;;;;7.97;100.00;97236.84;5015394;28;20042;-68
2024/04/05 05:42:27;;;;;;;5.72;2.13;;;;;;;8.08;100.00;97249.50;5026664;28;20052;-66
2024/04/05 05:44:54;;;;;;;5.00;2.20;;;;;;;8.09;100.00;97251.13;5018177;28;20427;-68
2024/04/05 05:47:20;;;;;;;6.28;2.17;;;;;;;8.13;100.00;97232.56;5021069;28;20409;-67
2024/04/05 05:49:48;;;;;;;10.60;2.70;;;;;;;8.09;100.00;97228.72;5021752;28;20103;-68
2024/04/05 05:52:14;;;;;;;5.93;2.20;;;;;;;8.15;100.00;97225.88;5025209;28;20143;-67
2024/04/05 05:54:39;;;;;;;3.97;2.20;;;;;;;8.33;100.00;97237.53;5020720;28;20588;-67
2024/04/05 05:57:05;;;;;;;7.93;2.53;;;;;;;8.34;100.00;97239.19;5021891;28;20132;-68
2024/04/05 05:59:30;;;;;;;7.88;3.17;;;;;;;8.40;100.00;97226.63;5023602;28;20046;-66
2024/04/05 06:01:57;;;;;;;7.80;2.75;;;;;;;8.49;100.00;97232.44;5016929;28;20046;-67
2024/04/05 06:04:22;;;;;;;3.97;2.28;;;;;;;8.50;100.00;97229.50;5016220;28;20041;-67
2024/04/05 06:06:49;;;;;;;8.45;2.63;;;;;;;8.61;100.00;97241.34;5029444;28;20079;-68
2024/04/05 06:09:16;;;;;;;8.90;2.72;;;;;;;8.64;100.00;97238.16;5015748;28;20063;-66
2024/04/05 06:11:42;;;;;;;6.07;2.70;;;;;;;8.82;100.00;97239.00;5015613;28;20072;-67
2024/04/05 06:14:08;;;;;;;7.57;3.17;;;;;;;8.97;100.00;97222.25;5021294;28;20060;-67
2024/04/05 06:16:34;;;;;;;5.82;2.97;;;;;;;9.12;100.00;97221.66;5027418;28;20037;-68
2024/04/05 06:19:00;;;;;;;7.60;2.58;;;;;;;9.28;100.00;97214.59;5023375;28;20115;-67
2024/04/05 06:21:25;;;;;;;4.72;2.10;;;;;;;9.45;100.00;97203.78;5028520;28;20056;-66
2024/04/05 06:23:51;;;;;;;5.45;2.13;;;;;;;9.79;100.00;97208.28;5017274;28;20104;-67
2024/04/05 06:26:17;;;;;;;5.85;2.03;;;;;;;10.01;100.00;97202.03;5026105;28;20041;-67
2024/04/05 06:28:42;;;;;;;5.28;2.15;;;;;;;10.32;100.00;97204.28;5022755;28;20091;-68
2024/04/05 06:31:08;;;;;;;4.43;1.50;;;;;;;10.58;100.00;97201.88;5024871;28;20052;-67
2024/04/05 06:33:34;;;;;;;3.72;1.67;;;;;;;10.84;100.00;97196.69;5025281;28;20041;-67
2024/04/05 06:36:01;;;;;;;6.20;1.50;;;;;;;11.08;100.00;97188.19;5019753;28;20041;-66
2024/04/05 06:38:27;;;;;;;6.47;2.13;;;;;;;11.26;100.00;97185.06;5021274;28;20084;-68
2024/04/05 06:40:57;;;;;;;5.68;1.48;;;;;;;11.48;100.00;97192.25;5024797;28;20053;-64
2024/04/05 06:43:25;;;;;;;4.85;1.30;;;;;;;11.65;100.00;97194.78;5017803;28;20073;-63
2024/04/05 06:45:55;;;;;;;3.47;1.30;;;;;;;11.82;100.00;97191.88;5024880;28;20054;-64
2024/04/05 06:48:21;;;;;;;2.92;1.27;;;;;;;11.96;100.00;97186.78;5018632;28;20079;-64
2024/04/05 06:50:48;;;;;;;5.05;1.20;;;;;;;12.04;100.00;97184.63;5024926;28;20049;-62
2024/04/05 06:53:28;;;;;;;4.07;1.65;;;;;;;12.20;100.00;97190.97;5023655;28;20060;-63
2024/04/05 06:55:53;;;;;;;5.00;1.60;;;;;;;12.36;100.00;97189.09;5017639;28;20044;-65
2024/04/05 06:58:19;;;;;;;2.88;1.30;;;;;;;12.45;100.00;97189.38;5024558;28;20041;-62
2024/04/05 07:00:46;;;;;;;5.88;1.35;;;;;;;12.59;100.00;97178.81;5018712;28;20047;-64
2024/04/05 07:03:12;;;;;;;4.68;1.15;;;;;;;12.68;100.00;97181.81;5019551;28;20103;-63
2024/04/05 07:05:39;;;;;;;5.38;1.33;;;;;;;12.81;100.00;97183.19;5024917;28;20036;-63
2024/04/05 07:08:06;;;;;;;4.40;1.17;;;;;;;12.95;100.00;97178.03;5031306;28;20543;-62
2024/04/05 07:10:33;;;;;;;2.58;1.10;;;;;;;12.95;100.00;97176.13;5016075;28;20052;-61
2024/04/05 07:12:59;;;;;;;5.05;1.27;;;;;;;13.04;100.00;97176.38;5008231;28;20045;-63
2024/04/05 07:15:24;;;;;;;2.38;0.85;;;;;;;13.07;100.00;97181.28;5020053;28;20133;-62
2024/04/05 07:17:52;;;;;;;5.47;1.63;;;;;;;13.12;100.00;97189.44;5024387;28;20033;-64
2024/04/05 07:20:24;;;;;;;5.43;1.83;;;;;;;13.17;100.00;97194.06;5024777;28;20036;-64
2024/04/05 07:22:52;;;;;;;4.13;1.63;;;;;;;13.32;100.00;97187.78;5019008;28;20064;-64
2024/04/05 07:25:22;;;;;;;4.53;1.17;;;;;;;13.33;100.00;97192.13;5025776;28;20044;-64
2024/04/05 07:27:53;;;;;;;3.97;1.75;;;;;;;13.51;100.00;97187.22;5018576;28;21170;-63
2024/04/05 07:30:22;;;;;;;7.20;1.10;;;;;;;13.67;100.00;97168.94;5022700;28;20053;-62
2024/04/05 07:32:49;;;;;;;3.70;1.17;;;;;;;13.72;100.00;97168.13;5022982;28;20045;-63
2024/04/05 07:35:15;;;;;;;2.40;1.08;;;;;;;13.76;100.00;97155.59;5024475;28;20033;-63
2024/04/05 07:37:41;;;;;;;4.28;0.80;;;;;;;13.75;100.00;97151.25;5021788;28;20067;-63
2024/04/05 07:40:07;;;;;;;4.18;0.95;;;;;;;13.83;100.00;97156.13;5021318;28;20049;-63
2024/04/05 07:42:35;;;;;;;6.60;1.23;;;;;;;13.83;100.00;97163.47;5027447;28;20037;-63
2024/04/05 07:45:03;;;;;;;3.83;1.20;;;;;;;13.85;100.00;97164.81;5024441;28;20037;-63
2024/04/05 07:47:29;;;;;;;5.35;1.10;;;;;;;13.90;100.00;97170.22;5016192;28;20090;-63
2024/04/05 07:49:55;;;;;;;4.55;1.33;;;;;;;13.94;100.00;97173.22;5025261;28;20057;-63
2024/04/05 07:52:20;;;;;;;4.88;1.08;;;;;;;13.94;100.00;97169.66;4992484;28;20068;-63
2024/04/05 07:54:47;;;;;;;4.75;1.17;;;;;;;13.91;100.00;97166.44;5022078;28;20616;-63
2024/04/05 07:57:13;;;;;;;3.55;1.27;;;;;;;14.02;100.00;97166.38;5015384;28;20455;-64
2024/04/05 07:59:40;;;;;;;3.55;1.13;;;;;;;14.10;100.00;97173.13;5018800;28;20071;-62
2024/04/05 08:02:06;;;;;;;5.57;1.30;;;;;;;14.18;100.00;97178.00;5019665;28;20420;-66
2024/04/05 08:04:32;;;;;;;3.63;0.98;;;;;;;14.25;100.00;97175.78;5022421;28;20475;-66
2024/04/05 08:06:58;;;;;;;3.58;1.00;;;;;;;14.37;100.00;97169.19;5022160;28;20049;-66
2024/04/05 08:09:26;;;;;;;5.32;1.48;;;;;;;14.54;100.00;97160.63;5016990;28;20088;-67
2024/04/05 08:11:52;;;;;;;4.35;1.33;;;;;;;14.66;100.00;97152.09;5022680;28;20088;-67
2024/04/05 08:14:17;;;;;;;2.63;1.00;;;;;;;14.78;100.00;97155.28;5021585;28;20040;-66
2024/04/05 08:16:43;;;;;;;3.38;1.35;;;;;;;14.81;100.00;97146.56;5019919;28;20940;-66
2024/04/05 08:19:09;;;;;;;5.18;1.52;;;;;;;14.94;100.00;97161.44;5021515;28;20120;-67
2024/04/05 08:21:34;;;;;;;2.95;1.15;;;;;;;15.05;100.00;97164.91;5028764;28;20068;-67
2024/04/05 08:24:00;;;;;;;3.63;1.42;;;;;;;15.26;100.00;97155.72;5013786;28;20116;-66
2024/04/05 08:26:25;;;;;;;6.00;1.10;;;;;;;15.45;100.00;97159.31;5018991;28;20095;-66
2024/04/05 08:28:52;;;;;;;2.35;0.80;;;;;;;15.66;100.00;97170.00;5026163;28;20120;-67
2024/04/05 08:31:19;;;;;;;3.75;1.00;;;;;;;15.47;100.00;97168.03;5006575;28;20045;-66
2024/04/05 08:33:45;;;;;;;4.32;1.08;;;;;;;15.41;100.00;97161.00;5019007;28;20524;-70
2024/04/05 08:36:10;;;;;;;2.90;0.90;;;;;;;15.39;100.00;97163.22;5017221;28;20125;-70
2024/04/05 08:38:36;;;;;;;3.88;1.00;;;;;;;15.37;100.00;97165.41;5018479;28;20500;-67
2024/04/05 08:41:11;;;;;;;3.22;0.90;;;;;;;15.44;100.00;97162.34;5018063;28;20063;-68
2024/04/05 08:43:43;;;;;;;3.08;0.90;;;;;;;15.53;100.00;97160.59;5019533;28;20517;-69
2024/04/05 08:46:08;;;;;;;2.85;1.20;;;;;;;15.61;100.00;97150.97;5023016;28;20047;-67
2024/04/05 08:48:35;;;;;;;2.20;0.90;;;;;;;15.60;100.00;97152.06;5023724;28;20079;-68
2024/04/05 08:51:02;;;;;;;2.85;0.88;;;;;;;15.79;100.00;97152.13;5017874;28;20549;-68
2024/04/05 08:53:29;;;;;;;1.92;0.80;;;;;;;15.82;100.00;97159.72;5020680;28;20052;-68
2024/04/05 08:55:59;;;;;;;1.95;0.88;;;;;;;15.87;100.00;97158.84;5023209;28;20104;-68
2024/04/05 08:58:27;;;;;;;2.85;1.10;;;;;;;15.86;100.00;97158.03;5020575;28;20037;-69
2024/04/05 09:00:54;;;;;;;5.03;1.65;;;;;;;15.91;100.00;97162.63;5025506;28;20528;-69
2024/04/05 09:03:19;;;;;;;3.13;0.77;;;;;;;15.94;100.00;97164.81;5039026;28;20038;-67
2024/04/05 09:05:45;;;;;;;2.45;0.90;;;;;;;15.99;100.00;97159.28;5021380;28;20124;-71
2024/04/05 09:08:11;;;;;;;2.67;0.77;;;;;;;16.06;100.00;97163.56;5021526;28;20077;-68
2024/04/05 09:10:36;;;;;;;2.78;1.00;;;;;;;16.15;100.00;97161.81;5022559;28;20037;-69
2024/04/05 09:13:04;;;;;;;3.63;1.00;;;;;;;16.22;100.00;97145.84;5029163;28;20041;-68
2024/04/05 09:15:31;;;;;;;4.13;0.80;;;;;;;16.25;100.00;97147.19;5023466;28;20088;-69
2024/04/05 09:17:56;;;;;;;2.72;0.88;;;;;;;16.36;100.00;97154.13;5026214;28;20056;-67
2024/04/05 09:20:29;;;;;;;2.97;1.35;;;;;;;16.44;100.00;97149.13;5000390;28;20037;-69
2024/04/05 09:23:07;;;;;;;6.13;1.05;;;;;;;16.54;100.00;97146.22;5021647;28;20089;-66
2024/04/05 09:25:38;;;;;;;2.00;0.90;;;;;;;16.46;100.00;97147.72;5022157;28;20037;-67
2024/04/05 09:28:08;;;;;;;4.18;0.70;;;;;;;16.63;100.00;97143.66;5020886;28;20111;-70
2024/04/05 09:30:34;;;;;;;3.30;0.80;;;;;;;16.69;100.00;97136.97;5028002;28;20041;-66
2024/04/05 09:33:01;;;;;;;6.63;2.03;;;;;;;16.84;100.00;97151.53;5025294;28;19924;-67
2024/04/05 09:35:28;;;;;;;2.20;0.70;;;;;;;16.97;100.00;97148.00;5026582;28;20533;-67
2024/04/05 09:37:54;;;;;;;3.30;1.10;;;;;;;16.98;100.00;97140.59;5019194;28;20045;-68
2024/04/05 09:40:23;;;;;;;4.10;0.88;;;;;;;17.05;100.00;97132.03;5018650;28;20033;-66
2024/04/05 09:42:51;;;;;;;4.38;1.60;;;;;;;17.14;100.00;97136.53;5016567;28;20100;-67
2024/04/05 09:45:19;;;;;;;5.20;1.48;;;;;;;17.12;100.00;97132.47;5030213;28;20041;-68
2024/04/05 09:47:46;;;;;;;5.43;1.42;;;;;;;17.23;100.00;97138.56;5024261;28;20046;-68
2024/04/05 09:50:11;;;;;;;6.85;1.92;;;;;;;17.27;100.00;97129.47;5026939;28;20062;-69
2024/04/05 09:52:40;;;;;;;3.38;1.00;;;;;;;17.35;100.00;97125.22;5022652;28;20109;-68
2024/04/05 09:55:09;;;;;;;4.15;1.20;;;;;;;17.41;100.00;97125.94;5027473;28;20052;-70
2024/04/05 09:57:36;;;;;;;2.70;0.70;;;;;;;17.54;100.00;97121.56;5016389;28;20049;-69
2024/04/05 10:00:24;;;;;;;4.80;1.15;;;;;;;17.59;100.00;97112.44;5029351;28;20528;-69
2024/04/05 10:02:52;;;;;;;2.03;0.90;;;;;;;17.76;100.00;97109.91;5012071;28;20579;-68
2024/04/05 10:05:28;;;;;;;3.72;0.93;;;;;;;17.70;100.00;97105.66;5021973;28;20045;-69
2024/04/05 10:07:55;;;;;;;2.58;1.00;;;;;;;17.85;100.00;97103.72;5021688;28;20041;-70
2024/04/05 10:10:33;;;;;;;1.65;0.88;;;;;;;17.99;100.00;97104.47;5020145;28;20121;-70
2024/04/05 10:13:12;;;;;;;3.17;0.88;;;;;;;18.02;100.00;97094.88;5022206;28;20041;-68
2024/04/05 10:15:39;;;;;;;2.13;0.90;;;;;;;18.19;100.00;97086.84;5018659;28;20037;-70
2024/04/05 10:18:06;;;;;;;2.15;0.93;;;;;;;18.33;100.00;97089.50;5022302;28;20045;-70
2024/04/05 10:20:34;;;;;;;4.63;1.20;;;;;;;18.58;98.14;97083.75;5014738;28;20060;-69
2024/04/05 10:23:00;;;;;;;4.38;0.98;;;;;;;18.80;96.81;97082.09;5026762;28;20037;-69
2024/04/05 10:25:26;;;;;;;3.42;1.10;;;;;;;18.85;95.72;97073.75;5021370;28;20053;-67
2024/04/05 10:27:53;;;;;;;3.92;1.10;;;;;;;19.22;99.10;97076.38;5017302;28;20041;-68
2024/04/05 10:30:21;;;;;;;4.57;0.80;;;;;;;19.45;94.06;97081.78;5021708;28;20057;-66
2024/04/05 10:32:57;;;;;;;1.92;0.80;;;;;;;19.68;88.04;97067.97;5012917;28;20761;-66
2024/04/05 10:35:23;;;;;;;3.67;0.80;;;;;;;19.79;86.10;97063.00;5004728;28;20044;-66
2024/04/05 10:37:58;;;;;;;3.70;0.77;;;;;;;19.62;85.73;97057.16;5024283;28;20095;-66
2024/04/05 10:40:24;;;;;;;4.28;0.60;;;;;;;19.70;84.12;97054.72;5032119;28;20412;-67
2024/04/05 10:42:50;;;;;;;4.05;0.68;;;;;;;19.40;81.33;97059.97;5013579;28;20041;-66
2024/04/05 10:45:20;;;;;;;5.20;0.73;;;;;;;19.53;83.14;97061.00;5020806;28;20125;-67
2024/04/05 10:47:53;;;;;;;2.70;0.55;;;;;;;19.68;84.14;97060.53;5021714;28;20037;-66
2024/04/05 10:50:20;;;;;;;2.78;1.05;;;;;;;19.95;77.83;97057.84;5027879;28;20041;-67
2024/04/05 10:52:52;;;;;;;3.53;1.00;;;;;;;20.17;79.11;97058.84;5025246;28;20406;-66
2024/04/05 10:55:18;;;;;;;2.75;0.75;;;;;;;20.11;72.53;97060.94;5015827;28;20521;-66
2024/04/05 10:57:44;;;;;;;4.55;0.88;;;;;;;19.94;71.42;97059.75;5018868;28;20044;-66
2024/04/05 11:00:13;;;;;;;1.95;0.55;;;;;;;19.91;72.92;97060.44;5021141;28;20068;-67
2024/04/05 11:02:43;;;;;;;2.67;0.57;;;;;;;19.85;70.38;97046.03;5020969;28;20051;-66
2024/04/05 11:05:15;;;;;;;3.55;1.30;;;;;;;19.97;69.29;97055.59;5023921;28;20045;-66
2024/04/05 11:07:44;;;;;;;1.67;0.60;;;;;;;20.09;67.72;97054.97;5025264;28;20524;-66
2024/04/05 11:10:13;;;;;;;2.85;0.90;;;;;;;20.24;69.10;97053.69;5021614;28;20038;-66
2024/04/05 11:12:39;;;;;;;2.05;0.68;;;;;;;20.31;68.03;97055.94;5021372;28;20449;-66
2024/04/05 11:15:05;;;;;;;1.70;0.50;;;;;;;20.62;68.97;97053.00;5016020;28;20116;-66
2024/04/05 11:17:31;;;;;;;2.60;0.63;;;;;;;20.67;67.17;97061.09;5020279;28;20123;-66
2024/04/05 11:20:08;;;;;;;2.65;0.68;;;;;;;20.82;64.81;97060.91;5024232;28;20049;-66
2024/04/05 11:22:33;;;;;;;2.05;0.70;;;;;;;20.76;63.07;97054.75;5015247;28;20116;-66
2024/04/05 11:24:59;;;;;;;2.75;0.52;;;;;;;20.62;63.39;97054.94;5020200;28;20045;-66
2024/04/05 11:27:27;;;;;;;1.95;0.60;;;;;;;20.74;64.39;97052.34;5020590;28;20067;-66